sensor_id;sensor_type;location;lat;lon;timestamp;P1;durP1;ratioP1;P2;durP2;ratioP2
52942;SDS011;38809;53.300;6.614;2023-02-11T00:02:02;19.45;;;5.15;;
52942;SDS011;38809;53.300;6.614;2023-02-11T00:04:29;16.35;;;4.28;;
52942;SDS011;38809;53.300;6.614;2023-02-11T00:06:55;22.35;;;5.22;;
52942;SDS011;38809;53.300;6.614;2023-02-11T00:09:21;18.88;;;5.18;;
52942;SDS011;38809;53.300;6.614;2023-02-11T00:11:47;17.77;;;5.93;;
52942;SDS011;38809;53.300;6.614;2023-02-11T00:14:12;27.20;;;6.40;;
52942;SDS011;38809;53.300;6.614;2023-02-11T00:16:38;20.45;;;5.90;;
52942;SDS011;38809;53.300;6.614;2023-02-11T00:19:04;17.70;;;5.13;;
52942;SDS011;38809;53.300;6.614;2023-02-11T00:21:31;14.40;;;4.45;;
52942;SDS011;38809;53.300;6.614;2023-02-11T00:23:57;17.17;;;3.72;;
52942;SDS011;38809;53.300;6.614;2023-02-11T00:26:33;14.77;;;5.53;;
52942;SDS011;38809;53.300;6.614;2023-02-11T00:29:00;15.60;;;4.47;;
52942;SDS011;38809;53.300;6.614;2023-02-11T00:31:26;19.30;;;5.38;;
52942;SDS011;38809;53.300;6.614;2023-02-11T00:33:52;14.90;;;4.90;;
52942;SDS011;38809;53.300;6.614;2023-02-11T00:36:22;21.48;;;6.07;;
52942;SDS011;38809;53.300;6.614;2023-02-11T00:38:50;20.58;;;5.18;;
52942;SDS011;38809;53.300;6.614;2023-02-11T00:41:17;18.48;;;5.05;;
52942;SDS011;38809;53.300;6.614;2023-02-11T00:46:09;16.45;;;4.95;;
52942;SDS011;38809;53.300;6.614;2023-02-11T00:48:35;15.90;;;4.75;;
52942;SDS011;38809;53.300;6.614;2023-02-11T00:51:01;15.47;;;5.43;;
52942;SDS011;38809;53.300;6.614;2023-02-11T00:55:54;20.80;;;5.15;;
52942;SDS011;38809;53.300;6.614;2023-02-11T00:58:20;20.25;;;5.07;;
52942;SDS011;38809;53.300;6.614;2023-02-11T01:00:46;16.55;;;4.45;;
52942;SDS011;38809;53.300;6.614;2023-02-11T01:03:12;12.77;;;4.05;;
52942;SDS011;38809;53.300;6.614;2023-02-11T01:05:38;16.10;;;5.45;;
52942;SDS011;38809;53.300;6.614;2023-02-11T01:08:04;20.37;;;6.10;;
52942;SDS011;38809;53.300;6.614;2023-02-11T01:10:30;17.13;;;5.95;;
52942;SDS011;38809;53.300;6.614;2023-02-11T01:12:56;17.92;;;6.15;;
52942;SDS011;38809;53.300;6.614;2023-02-11T01:15:21;17.42;;;5.93;;
52942;SDS011;38809;53.300;6.614;2023-02-11T01:17:47;17.65;;;5.53;;
52942;SDS011;38809;53.300;6.614;2023-02-11T01:20:14;14.77;;;6.03;;
52942;SDS011;38809;53.300;6.614;2023-02-11T01:22:42;15.50;;;5.78;;
52942;SDS011;38809;53.300;6.614;2023-02-11T01:25:08;22.43;;;6.40;;
52942;SDS011;38809;53.300;6.614;2023-02-11T01:27:33;15.95;;;5.50;;
52942;SDS011;38809;53.300;6.614;2023-02-11T01:32:26;15.73;;;5.93;;
52942;SDS011;38809;53.300;6.614;2023-02-11T01:34:52;16.67;;;5.70;;
52942;SDS011;38809;53.300;6.614;2023-02-11T01:37:17;16.47;;;6.17;;
52942;SDS011;38809;53.300;6.614;2023-02-11T01:39:43;24.33;;;7.15;;
52942;SDS011;38809;53.300;6.614;2023-02-11T01:42:19;16.55;;;6.65;;
52942;SDS011;38809;53.300;6.614;2023-02-11T01:44:50;14.75;;;6.15;;
52942;SDS011;38809;53.300;6.614;2023-02-11T01:47:18;15.80;;;6.35;;
52942;SDS011;38809;53.300;6.614;2023-02-11T01:49:46;16.88;;;5.63;;
52942;SDS011;38809;53.300;6.614;2023-02-11T01:52:25;17.73;;;6.47;;
52942;SDS011;38809;53.300;6.614;2023-02-11T01:55:03;24.33;;;7.93;;
52942;SDS011;38809;53.300;6.614;2023-02-11T01:57:51;18.38;;;6.70;;
52942;SDS011;38809;53.300;6.614;2023-02-11T02:00:41;19.55;;;7.05;;
52942;SDS011;38809;53.300;6.614;2023-02-11T02:03:14;18.95;;;7.75;;
52942;SDS011;38809;53.300;6.614;2023-02-11T02:06:18;23.30;;;8.50;;
52942;SDS011;38809;53.300;6.614;2023-02-11T02:08:56;20.70;;;7.13;;
52942;SDS011;38809;53.300;6.614;2023-02-11T02:11:27;17.40;;;6.90;;
52942;SDS011;38809;53.300;6.614;2023-02-11T02:13:52;19.13;;;7.60;;
52942;SDS011;38809;53.300;6.614;2023-02-11T02:16:18;22.70;;;6.90;;
52942;SDS011;38809;53.300;6.614;2023-02-11T02:37:58;21.75;;;9.30;;
52942;SDS011;38809;53.300;6.614;2023-02-11T02:40:27;20.33;;;8.10;;
52942;SDS011;38809;53.300;6.614;2023-02-11T02:43:00;16.20;;;8.43;;
52942;SDS011;38809;53.300;6.614;2023-02-11T02:45:27;17.90;;;8.80;;
52942;SDS011;38809;53.300;6.614;2023-02-11T02:47:53;25.50;;;9.10;;
52942;SDS011;38809;53.300;6.614;2023-02-11T02:50:20;22.27;;;8.98;;
52942;SDS011;38809;53.300;6.614;2023-02-11T02:58:37;25.50;;;10.27;;
52942;SDS011;38809;53.300;6.614;2023-02-11T03:06:22;19.65;;;9.30;;
52942;SDS011;38809;53.300;6.614;2023-02-11T03:08:52;20.90;;;10.13;;
52942;SDS011;38809;53.300;6.614;2023-02-11T03:11:26;27.80;;;10.40;;
52942;SDS011;38809;53.300;6.614;2023-02-11T03:13:53;28.08;;;12.30;;
52942;SDS011;38809;53.300;6.614;2023-02-11T03:16:21;22.40;;;11.52;;
52942;SDS011;38809;53.300;6.614;2023-02-11T03:18:55;24.90;;;12.20;;
52942;SDS011;38809;53.300;6.614;2023-02-11T03:21:41;22.23;;;11.57;;
52942;SDS011;38809;53.300;6.614;2023-02-11T03:24:10;22.27;;;10.98;;
52942;SDS011;38809;53.300;6.614;2023-02-11T03:26:55;22.55;;;11.32;;
52942;SDS011;38809;53.300;6.614;2023-02-11T03:34:56;27.95;;;13.30;;
52942;SDS011;38809;53.300;6.614;2023-02-11T03:37:38;27.17;;;13.13;;
52942;SDS011;38809;53.300;6.614;2023-02-11T03:40:17;26.38;;;12.10;;
52942;SDS011;38809;53.300;6.614;2023-02-11T03:43:37;26.58;;;12.13;;
52942;SDS011;38809;53.300;6.614;2023-02-11T03:46:00;21.50;;;11.70;;
52942;SDS011;38809;53.300;6.614;2023-02-11T03:48:29;23.40;;;12.73;;
52942;SDS011;38809;53.300;6.614;2023-02-11T03:51:04;23.38;;;11.52;;
52942;SDS011;38809;53.300;6.614;2023-02-11T03:53:33;21.55;;;10.63;;
52942;SDS011;38809;53.300;6.614;2023-02-11T03:56:01;21.55;;;12.00;;
52942;SDS011;38809;53.300;6.614;2023-02-11T03:58:30;25.63;;;12.90;;
52942;SDS011;38809;53.300;6.614;2023-02-11T04:00:56;22.88;;;12.05;;
52942;SDS011;38809;53.300;6.614;2023-02-11T04:03:21;26.53;;;12.73;;
52942;SDS011;38809;53.300;6.614;2023-02-11T04:05:47;26.13;;;13.73;;
52942;SDS011;38809;53.300;6.614;2023-02-11T04:08:13;24.83;;;12.93;;
52942;SDS011;38809;53.300;6.614;2023-02-11T04:10:39;22.52;;;13.18;;
52942;SDS011;38809;53.300;6.614;2023-02-11T04:13:05;25.50;;;13.97;;
52942;SDS011;38809;53.300;6.614;2023-02-11T04:15:31;22.48;;;13.13;;
52942;SDS011;38809;53.300;6.614;2023-02-11T04:17:56;25.08;;;13.13;;
52942;SDS011;38809;53.300;6.614;2023-02-11T04:20:22;21.27;;;11.50;;
52942;SDS011;38809;53.300;6.614;2023-02-11T04:22:48;23.05;;;13.35;;
52942;SDS011;38809;53.300;6.614;2023-02-11T04:25:13;27.63;;;13.50;;
52942;SDS011;38809;53.300;6.614;2023-02-11T04:27:39;29.02;;;13.35;;
52942;SDS011;38809;53.300;6.614;2023-02-11T04:30:06;25.23;;;13.00;;
52942;SDS011;38809;53.300;6.614;2023-02-11T04:32:33;24.80;;;13.68;;
52942;SDS011;38809;53.300;6.614;2023-02-11T04:34:58;21.83;;;13.77;;
52942;SDS011;38809;53.300;6.614;2023-02-11T04:37:24;23.90;;;13.47;;
52942;SDS011;38809;53.300;6.614;2023-02-11T04:39:50;26.47;;;13.47;;
52942;SDS011;38809;53.300;6.614;2023-02-11T04:42:15;25.63;;;12.97;;
52942;SDS011;38809;53.300;6.614;2023-02-11T04:44:41;25.77;;;13.65;;
52942;SDS011;38809;53.300;6.614;2023-02-11T04:47:07;27.63;;;14.37;;
52942;SDS011;38809;53.300;6.614;2023-02-11T04:49:32;26.73;;;13.97;;
52942;SDS011;38809;53.300;6.614;2023-02-11T04:51:58;25.60;;;13.60;;
52942;SDS011;38809;53.300;6.614;2023-02-11T04:54:24;24.27;;;12.57;;
52942;SDS011;38809;53.300;6.614;2023-02-11T04:56:49;22.77;;;13.37;;
52942;SDS011;38809;53.300;6.614;2023-02-11T04:59:15;27.13;;;14.07;;
52942;SDS011;38809;53.300;6.614;2023-02-11T05:01:41;26.53;;;14.37;;
52942;SDS011;38809;53.300;6.614;2023-02-11T05:04:07;24.85;;;14.60;;
52942;SDS011;38809;53.300;6.614;2023-02-11T05:06:32;26.08;;;13.93;;
52942;SDS011;38809;53.300;6.614;2023-02-11T05:08:58;26.47;;;14.87;;
52942;SDS011;38809;53.300;6.614;2023-02-11T05:11:24;25.20;;;13.97;;
52942;SDS011;38809;53.300;6.614;2023-02-11T05:13:50;31.17;;;15.80;;
52942;SDS011;38809;53.300;6.614;2023-02-11T05:16:16;24.40;;;14.18;;
52942;SDS011;38809;53.300;6.614;2023-02-11T05:18:43;23.75;;;13.10;;
52942;SDS011;38809;53.300;6.614;2023-02-11T05:21:10;23.30;;;13.45;;
52942;SDS011;38809;53.300;6.614;2023-02-11T05:23:38;24.35;;;14.07;;
52942;SDS011;38809;53.300;6.614;2023-02-11T05:26:04;26.85;;;13.82;;
52942;SDS011;38809;53.300;6.614;2023-02-11T05:28:30;27.30;;;13.65;;
52942;SDS011;38809;53.300;6.614;2023-02-11T05:30:56;24.77;;;13.35;;
52942;SDS011;38809;53.300;6.614;2023-02-11T05:33:22;26.83;;;14.82;;
52942;SDS011;38809;53.300;6.614;2023-02-11T05:35:49;21.45;;;13.35;;
52942;SDS011;38809;53.300;6.614;2023-02-11T05:38:14;23.58;;;12.35;;
52942;SDS011;38809;53.300;6.614;2023-02-11T05:40:40;19.58;;;11.73;;
52942;SDS011;38809;53.300;6.614;2023-02-11T05:43:06;23.45;;;14.00;;
52942;SDS011;38809;53.300;6.614;2023-02-11T05:45:32;22.50;;;13.77;;
52942;SDS011;38809;53.300;6.614;2023-02-11T05:47:58;23.35;;;12.77;;
52942;SDS011;38809;53.300;6.614;2023-02-11T05:50:24;22.52;;;12.45;;
52942;SDS011;38809;53.300;6.614;2023-02-11T05:52:50;27.65;;;13.70;;
52942;SDS011;38809;53.300;6.614;2023-02-11T05:55:16;23.20;;;12.65;;
52942;SDS011;38809;53.300;6.614;2023-02-11T05:57:42;20.63;;;11.60;;
52942;SDS011;38809;53.300;6.614;2023-02-11T06:00:08;24.30;;;11.63;;
52942;SDS011;38809;53.300;6.614;2023-02-11T06:02:34;19.80;;;11.65;;
52942;SDS011;38809;53.300;6.614;2023-02-11T06:05:00;22.57;;;12.37;;
52942;SDS011;38809;53.300;6.614;2023-02-11T06:07:25;23.97;;;12.60;;
52942;SDS011;38809;53.300;6.614;2023-02-11T06:09:51;20.67;;;11.43;;
52942;SDS011;38809;53.300;6.614;2023-02-11T06:12:17;20.52;;;10.70;;
52942;SDS011;38809;53.300;6.614;2023-02-11T06:14:42;26.03;;;12.33;;
52942;SDS011;38809;53.300;6.614;2023-02-11T06:17:08;21.13;;;13.07;;
52942;SDS011;38809;53.300;6.614;2023-02-11T06:19:34;22.47;;;12.90;;
52942;SDS011;38809;53.300;6.614;2023-02-11T06:21:59;24.33;;;12.43;;
52942;SDS011;38809;53.300;6.614;2023-02-11T06:24:25;18.77;;;11.50;;
52942;SDS011;38809;53.300;6.614;2023-02-11T06:26:51;22.00;;;12.43;;
52942;SDS011;38809;53.300;6.614;2023-02-11T06:29:17;22.83;;;11.85;;
52942;SDS011;38809;53.300;6.614;2023-02-11T06:31:42;18.98;;;11.35;;
52942;SDS011;38809;53.300;6.614;2023-02-11T06:34:08;21.10;;;11.53;;
52942;SDS011;38809;53.300;6.614;2023-02-11T06:36:35;25.45;;;11.98;;
52942;SDS011;38809;53.300;6.614;2023-02-11T06:39:03;26.33;;;11.45;;
52942;SDS011;38809;53.300;6.614;2023-02-11T06:41:29;22.05;;;10.48;;
52942;SDS011;38809;53.300;6.614;2023-02-11T06:43:55;16.92;;;9.95;;
52942;SDS011;38809;53.300;6.614;2023-02-11T06:46:21;22.87;;;12.10;;
52942;SDS011;38809;53.300;6.614;2023-02-11T06:48:46;22.02;;;11.40;;
52942;SDS011;38809;53.300;6.614;2023-02-11T06:51:12;23.47;;;11.67;;
52942;SDS011;38809;53.300;6.614;2023-02-11T06:53:45;21.40;;;11.52;;
52942;SDS011;38809;53.300;6.614;2023-02-11T06:56:18;17.38;;;10.35;;
52942;SDS011;38809;53.300;6.614;2023-02-11T06:58:46;21.20;;;12.02;;
52942;SDS011;38809;53.300;6.614;2023-02-11T07:01:13;18.23;;;10.57;;
52942;SDS011;38809;53.300;6.614;2023-02-11T07:03:40;20.42;;;10.60;;
52942;SDS011;38809;53.300;6.614;2023-02-11T07:06:07;17.42;;;10.98;;
52942;SDS011;38809;53.300;6.614;2023-02-11T07:08:36;19.95;;;10.85;;
52942;SDS011;38809;53.300;6.614;2023-02-11T07:11:09;22.95;;;11.35;;
52942;SDS011;38809;53.300;6.614;2023-02-11T07:13:40;21.27;;;10.63;;
52942;SDS011;38809;53.300;6.614;2023-02-11T07:16:07;23.88;;;10.40;;
52942;SDS011;38809;53.300;6.614;2023-02-11T07:18:35;23.13;;;12.13;;
52942;SDS011;38809;53.300;6.614;2023-02-11T07:21:07;19.67;;;10.57;;
52942;SDS011;38809;53.300;6.614;2023-02-11T07:23:34;22.15;;;10.98;;
52942;SDS011;38809;53.300;6.614;2023-02-11T07:26:04;23.35;;;12.38;;
52942;SDS011;38809;53.300;6.614;2023-02-11T07:28:31;23.17;;;12.55;;
52942;SDS011;38809;53.300;6.614;2023-02-11T07:30:59;24.10;;;13.20;;
52942;SDS011;38809;53.300;6.614;2023-02-11T07:33:40;24.88;;;13.40;;
52942;SDS011;38809;53.300;6.614;2023-02-11T07:36:07;25.45;;;13.02;;
52942;SDS011;38809;53.300;6.614;2023-02-11T07:38:34;24.02;;;11.20;;
52942;SDS011;38809;53.300;6.614;2023-02-11T07:43:27;23.02;;;11.90;;
52942;SDS011;38809;53.300;6.614;2023-02-11T07:45:53;20.75;;;11.45;;
52942;SDS011;38809;53.300;6.614;2023-02-11T07:48:19;24.88;;;11.50;;
52942;SDS011;38809;53.300;6.614;2023-02-11T07:50:44;21.05;;;10.82;;
52942;SDS011;38809;53.300;6.614;2023-02-11T07:53:10;25.67;;;10.90;;
52942;SDS011;38809;53.300;6.614;2023-02-11T07:55:36;26.13;;;11.97;;
52942;SDS011;38809;53.300;6.614;2023-02-11T07:58:02;18.90;;;10.00;;
52942;SDS011;38809;53.300;6.614;2023-02-11T08:00:27;20.88;;;11.48;;
52942;SDS011;38809;53.300;6.614;2023-02-11T08:02:53;25.33;;;12.80;;
52942;SDS011;38809;53.300;6.614;2023-02-11T08:05:21;23.17;;;11.82;;
52942;SDS011;38809;53.300;6.614;2023-02-11T08:07:49;19.17;;;10.10;;
52942;SDS011;38809;53.300;6.614;2023-02-11T08:10:18;21.52;;;12.05;;
52942;SDS011;38809;53.300;6.614;2023-02-11T08:12:44;19.55;;;10.27;;
52942;SDS011;38809;53.300;6.614;2023-02-11T08:15:10;19.23;;;10.53;;
52942;SDS011;38809;53.300;6.614;2023-02-11T08:17:36;16.90;;;10.53;;
52942;SDS011;38809;53.300;6.614;2023-02-11T08:20:02;19.63;;;10.77;;
52942;SDS011;38809;53.300;6.614;2023-02-11T08:22:33;23.30;;;9.77;;
52942;SDS011;38809;53.300;6.614;2023-02-11T08:24:59;20.48;;;10.07;;
52942;SDS011;38809;53.300;6.614;2023-02-11T08:27:25;17.75;;;10.00;;
52942;SDS011;38809;53.300;6.614;2023-02-11T08:29:51;23.58;;;10.82;;
52942;SDS011;38809;53.300;6.614;2023-02-11T08:34:43;19.73;;;10.15;;
52942;SDS011;38809;53.300;6.614;2023-02-11T08:37:09;20.57;;;8.77;;
52942;SDS011;38809;53.300;6.614;2023-02-11T08:39:34;18.27;;;8.67;;
52942;SDS011;38809;53.300;6.614;2023-02-11T08:42:00;18.85;;;9.40;;
52942;SDS011;38809;53.300;6.614;2023-02-11T08:44:26;19.43;;;10.10;;
52942;SDS011;38809;53.300;6.614;2023-02-11T08:46:52;21.63;;;10.05;;
52942;SDS011;38809;53.300;6.614;2023-02-11T08:49:18;21.88;;;9.65;;
52942;SDS011;38809;53.300;6.614;2023-02-11T08:51:44;18.88;;;9.50;;
52942;SDS011;38809;53.300;6.614;2023-02-11T08:54:10;20.58;;;8.20;;
52942;SDS011;38809;53.300;6.614;2023-02-11T08:59:03;20.33;;;9.10;;
52942;SDS011;38809;53.300;6.614;2023-02-11T09:01:29;15.10;;;8.23;;
52942;SDS011;38809;53.300;6.614;2023-02-11T09:06:22;18.02;;;8.30;;
52942;SDS011;38809;53.300;6.614;2023-02-11T09:08:50;15.88;;;7.93;;
52942;SDS011;38809;53.300;6.614;2023-02-11T09:11:18;17.95;;;8.68;;
52942;SDS011;38809;53.300;6.614;2023-02-11T09:13:46;21.88;;;9.90;;
52942;SDS011;38809;53.300;6.614;2023-02-11T09:16:22;21.08;;;8.23;;
52942;SDS011;38809;53.300;6.614;2023-02-11T09:18:50;16.45;;;7.72;;
52942;SDS011;38809;53.300;6.614;2023-02-11T09:21:16;18.38;;;8.45;;
52942;SDS011;38809;53.300;6.614;2023-02-11T09:23:43;17.48;;;7.85;;
52942;SDS011;38809;53.300;6.614;2023-02-11T09:28:40;18.55;;;7.65;;
52942;SDS011;38809;53.300;6.614;2023-02-11T09:31:15;13.43;;;7.43;;
52942;SDS011;38809;53.300;6.614;2023-02-11T09:33:49;15.93;;;7.35;;
52942;SDS011;38809;53.300;6.614;2023-02-11T09:36:24;17.95;;;7.45;;
52942;SDS011;38809;53.300;6.614;2023-02-11T09:38:52;16.23;;;6.75;;
52942;SDS011;38809;53.300;6.614;2023-02-11T09:43:48;15.30;;;7.50;;
52942;SDS011;38809;53.300;6.614;2023-02-11T09:46:20;16.17;;;7.50;;
52942;SDS011;38809;53.300;6.614;2023-02-11T09:48:48;15.57;;;7.43;;
52942;SDS011;38809;53.300;6.614;2023-02-11T09:51:32;17.60;;;7.40;;
52942;SDS011;38809;53.300;6.614;2023-02-11T09:57:01;16.13;;;6.13;;
52942;SDS011;38809;53.300;6.614;2023-02-11T09:59:27;18.90;;;5.90;;
52942;SDS011;38809;53.300;6.614;2023-02-11T10:01:54;13.63;;;6.57;;
52942;SDS011;38809;53.300;6.614;2023-02-11T10:10:36;14.35;;;6.25;;
52942;SDS011;38809;53.300;6.614;2023-02-11T10:13:31;11.98;;;6.13;;
52942;SDS011;38809;53.300;6.614;2023-02-11T10:16:20;13.23;;;6.05;;
52942;SDS011;38809;53.300;6.614;2023-02-11T10:24:53;13.75;;;4.88;;
52942;SDS011;38809;53.300;6.614;2023-02-11T10:27:33;14.25;;;4.38;;
52942;SDS011;38809;53.300;6.614;2023-02-11T10:32:44;13.20;;;4.78;;
52942;SDS011;38809;53.300;6.614;2023-02-11T10:35:19;10.90;;;4.88;;
52942;SDS011;38809;53.300;6.614;2023-02-11T10:37:46;12.75;;;4.82;;
52942;SDS011;38809;53.300;6.614;2023-02-11T10:40:13;13.85;;;4.80;;
52942;SDS011;38809;53.300;6.614;2023-02-11T10:42:45;13.75;;;4.13;;
52942;SDS011;38809;53.300;6.614;2023-02-11T10:51:19;9.15;;;3.95;;
52942;SDS011;38809;53.300;6.614;2023-02-11T10:56:37;11.15;;;4.18;;
52942;SDS011;38809;53.300;6.614;2023-02-11T10:59:24;11.38;;;3.35;;
52942;SDS011;38809;53.300;6.614;2023-02-11T11:01:55;13.60;;;3.40;;
52942;SDS011;38809;53.300;6.614;2023-02-11T11:07:13;11.57;;;2.97;;
52942;SDS011;38809;53.300;6.614;2023-02-11T11:09:51;9.82;;;3.17;;
52942;SDS011;38809;53.300;6.614;2023-02-11T11:14:58;14.57;;;3.70;;
52942;SDS011;38809;53.300;6.614;2023-02-11T11:17:30;11.75;;;3.45;;
52942;SDS011;38809;53.300;6.614;2023-02-11T11:22:40;9.60;;;3.00;;
52942;SDS011;38809;53.300;6.614;2023-02-11T11:28:15;12.70;;;3.08;;
52942;SDS011;38809;53.300;6.614;2023-02-11T11:30:45;11.15;;;2.75;;
52942;SDS011;38809;53.300;6.614;2023-02-11T11:33:17;8.63;;;2.92;;
52942;SDS011;38809;53.300;6.614;2023-02-11T11:35:59;11.85;;;3.00;;
52942;SDS011;38809;53.300;6.614;2023-02-11T11:38:31;12.82;;;3.15;;
52942;SDS011;38809;53.300;6.614;2023-02-11T11:49:40;11.82;;;2.78;;
52942;SDS011;38809;53.300;6.614;2023-02-11T11:55:12;10.50;;;2.60;;
52942;SDS011;38809;53.300;6.614;2023-02-11T11:57:45;16.23;;;2.78;;
52942;SDS011;38809;53.300;6.614;2023-02-11T12:00:55;7.45;;;2.33;;
52942;SDS011;38809;53.300;6.614;2023-02-11T12:03:32;10.88;;;2.90;;
52942;SDS011;38809;53.300;6.614;2023-02-11T12:22:54;10.95;;;2.63;;
52942;SDS011;38809;53.300;6.614;2023-02-11T12:25:26;11.85;;;2.50;;
52942;SDS011;38809;53.300;6.614;2023-02-11T12:30:44;7.97;;;2.05;;
52942;SDS011;38809;53.300;6.614;2023-02-11T12:40:57;9.50;;;1.92;;
52942;SDS011;38809;53.300;6.614;2023-02-11T12:44:11;8.45;;;2.08;;
52942;SDS011;38809;53.300;6.614;2023-02-11T12:46:56;9.48;;;2.20;;
52942;SDS011;38809;53.300;6.614;2023-02-11T12:57:47;10.13;;;2.13;;
52942;SDS011;38809;53.300;6.614;2023-02-11T13:05:37;9.60;;;2.15;;
52942;SDS011;38809;53.300;6.614;2023-02-11T13:08:15;9.52;;;2.00;;
52942;SDS011;38809;53.300;6.614;2023-02-11T13:10:42;8.85;;;2.03;;
52942;SDS011;38809;53.300;6.614;2023-02-11T13:13:20;10.50;;;1.83;;
52942;SDS011;38809;53.300;6.614;2023-02-11T13:15:49;8.43;;;2.55;;
52942;SDS011;38809;53.300;6.614;2023-02-11T13:23:56;8.75;;;2.05;;
52942;SDS011;38809;53.300;6.614;2023-02-11T13:26:30;10.70;;;2.00;;
52942;SDS011;38809;53.300;6.614;2023-02-11T13:31:54;11.25;;;2.97;;
52942;SDS011;38809;53.300;6.614;2023-02-11T13:34:25;11.23;;;2.85;;
52942;SDS011;38809;53.300;6.614;2023-02-11T13:37:21;10.63;;;3.25;;
52942;SDS011;38809;53.300;6.614;2023-02-11T13:39:57;11.65;;;2.33;;
52942;SDS011;38809;53.300;6.614;2023-02-11T13:42:29;10.18;;;2.20;;
52942;SDS011;38809;53.300;6.614;2023-02-11T13:44:56;11.73;;;2.70;;
52942;SDS011;38809;53.300;6.614;2023-02-11T13:47:29;8.00;;;1.90;;
52942;SDS011;38809;53.300;6.614;2023-02-11T13:49:57;10.70;;;2.60;;
52942;SDS011;38809;53.300;6.614;2023-02-11T13:52:26;10.32;;;2.20;;
52942;SDS011;38809;53.300;6.614;2023-02-11T13:54:55;9.07;;;1.92;;
52942;SDS011;38809;53.300;6.614;2023-02-11T13:57:29;10.85;;;2.13;;
52942;SDS011;38809;53.300;6.614;2023-02-11T13:59:58;9.95;;;2.13;;
52942;SDS011;38809;53.300;6.614;2023-02-11T14:02:28;9.43;;;2.20;;
52942;SDS011;38809;53.300;6.614;2023-02-11T14:08:11;13.80;;;1.90;;
52942;SDS011;38809;53.300;6.614;2023-02-11T14:11:02;10.00;;;2.40;;
52942;SDS011;38809;53.300;6.614;2023-02-11T14:16:18;9.52;;;2.50;;
52942;SDS011;38809;53.300;6.614;2023-02-11T14:23:47;15.18;;;2.58;;
52942;SDS011;38809;53.300;6.614;2023-02-11T14:42:45;11.65;;;2.28;;
52942;SDS011;38809;53.300;6.614;2023-02-11T14:45:15;10.98;;;2.55;;
52942;SDS011;38809;53.300;6.614;2023-02-11T14:47:50;8.68;;;2.38;;
52942;SDS011;38809;53.300;6.614;2023-02-11T14:50:47;10.15;;;2.30;;
52942;SDS011;38809;53.300;6.614;2023-02-11T14:53:22;9.05;;;2.35;;
52942;SDS011;38809;53.300;6.614;2023-02-11T14:55:50;12.32;;;2.63;;
52942;SDS011;38809;53.300;6.614;2023-02-11T14:58:19;9.20;;;2.53;;
52942;SDS011;38809;53.300;6.614;2023-02-11T15:06:03;9.10;;;2.00;;
52942;SDS011;38809;53.300;6.614;2023-02-11T15:08:41;8.13;;;2.25;;
52942;SDS011;38809;53.300;6.614;2023-02-11T15:11:14;10.95;;;2.08;;
52942;SDS011;38809;53.300;6.614;2023-02-11T15:13:42;12.45;;;2.42;;
52942;SDS011;38809;53.300;6.614;2023-02-11T15:16:11;9.45;;;2.03;;
52942;SDS011;38809;53.300;6.614;2023-02-11T15:18:43;8.20;;;2.10;;
52942;SDS011;38809;53.300;6.614;2023-02-11T15:21:18;7.80;;;1.95;;
52942;SDS011;38809;53.300;6.614;2023-02-11T15:23:53;13.13;;;2.33;;
52942;SDS011;38809;53.300;6.614;2023-02-11T15:26:39;7.65;;;2.33;;
52942;SDS011;38809;53.300;6.614;2023-02-11T15:29:13;6.75;;;2.28;;
52942;SDS011;38809;53.300;6.614;2023-02-11T15:31:42;9.73;;;2.35;;
52942;SDS011;38809;53.300;6.614;2023-02-11T15:34:08;12.17;;;3.30;;
52942;SDS011;38809;53.300;6.614;2023-02-11T15:36:33;13.35;;;2.83;;
52942;SDS011;38809;53.300;6.614;2023-02-11T15:39:28;11.75;;;2.80;;
52942;SDS011;38809;53.300;6.614;2023-02-11T15:41:55;13.18;;;2.90;;
52942;SDS011;38809;53.300;6.614;2023-02-11T15:44:39;10.60;;;2.47;;
52942;SDS011;38809;53.300;6.614;2023-02-11T15:47:08;8.77;;;2.10;;
52942;SDS011;38809;53.300;6.614;2023-02-11T15:49:38;6.68;;;2.30;;
52942;SDS011;38809;53.300;6.614;2023-02-11T15:52:09;9.57;;;2.20;;
52942;SDS011;38809;53.300;6.614;2023-02-11T15:54:35;17.15;;;2.90;;
52942;SDS011;38809;53.300;6.614;2023-02-11T15:57:02;11.25;;;2.78;;
52942;SDS011;38809;53.300;6.614;2023-02-11T15:59:35;9.57;;;2.35;;
52942;SDS011;38809;53.300;6.614;2023-02-11T16:04:33;9.98;;;2.60;;
52942;SDS011;38809;53.300;6.614;2023-02-11T16:07:00;8.50;;;2.17;;
52942;SDS011;38809;53.300;6.614;2023-02-11T16:11:57;9.80;;;2.17;;
52942;SDS011;38809;53.300;6.614;2023-02-11T16:19:40;8.95;;;2.50;;
52942;SDS011;38809;53.300;6.614;2023-02-11T16:22:14;7.95;;;2.38;;
52942;SDS011;38809;53.300;6.614;2023-02-11T16:24:44;11.20;;;2.65;;
52942;SDS011;38809;53.300;6.614;2023-02-11T16:29:45;10.10;;;2.80;;
52942;SDS011;38809;53.300;6.614;2023-02-11T16:34:42;10.55;;;2.88;;
52942;SDS011;38809;53.300;6.614;2023-02-11T16:37:08;10.15;;;2.60;;
52942;SDS011;38809;53.300;6.614;2023-02-11T16:39:34;11.35;;;2.92;;
52942;SDS011;38809;53.300;6.614;2023-02-11T16:42:00;10.60;;;2.53;;
52942;SDS011;38809;53.300;6.614;2023-02-11T16:44:26;13.35;;;2.53;;
52942;SDS011;38809;53.300;6.614;2023-02-11T16:46:52;10.30;;;2.72;;
52942;SDS011;38809;53.300;6.614;2023-02-11T16:51:44;13.35;;;2.67;;
52942;SDS011;38809;53.300;6.614;2023-02-11T16:54:14;11.30;;;2.92;;
52942;SDS011;38809;53.300;6.614;2023-02-11T16:56:40;11.43;;;2.63;;
52942;SDS011;38809;53.300;6.614;2023-02-11T16:59:06;9.48;;;2.65;;
52942;SDS011;38809;53.300;6.614;2023-02-11T17:01:32;9.40;;;2.80;;
52942;SDS011;38809;53.300;6.614;2023-02-11T17:03:58;10.02;;;2.90;;
52942;SDS011;38809;53.300;6.614;2023-02-11T17:06:24;12.35;;;3.45;;
52942;SDS011;38809;53.300;6.614;2023-02-11T17:08:51;12.05;;;2.80;;
52942;SDS011;38809;53.300;6.614;2023-02-11T17:11:17;10.82;;;2.90;;
52942;SDS011;38809;53.300;6.614;2023-02-11T17:13:44;14.20;;;3.80;;
52942;SDS011;38809;53.300;6.614;2023-02-11T17:16:20;17.02;;;3.70;;
52942;SDS011;38809;53.300;6.614;2023-02-11T17:21:13;8.90;;;2.83;;
52942;SDS011;38809;53.300;6.614;2023-02-11T17:23:39;12.18;;;2.92;;
52942;SDS011;38809;53.300;6.614;2023-02-11T17:26:05;12.00;;;3.03;;
52942;SDS011;38809;53.300;6.614;2023-02-11T17:28:31;13.70;;;2.65;;
52942;SDS011;38809;53.300;6.614;2023-02-11T17:30:58;11.60;;;3.20;;
52942;SDS011;38809;53.300;6.614;2023-02-11T17:35:49;8.00;;;2.30;;
52942;SDS011;38809;53.300;6.614;2023-02-11T17:38:15;9.07;;;3.07;;
52942;SDS011;38809;53.300;6.614;2023-02-11T17:40:41;8.52;;;2.65;;
52942;SDS011;38809;53.300;6.614;2023-02-11T17:43:07;10.37;;;3.73;;
52942;SDS011;38809;53.300;6.614;2023-02-11T17:45:33;8.75;;;2.75;;
52942;SDS011;38809;53.300;6.614;2023-02-11T17:48:00;10.38;;;2.78;;
52942;SDS011;38809;53.300;6.614;2023-02-11T17:50:25;10.75;;;2.65;;
52942;SDS011;38809;53.300;6.614;2023-02-11T17:52:51;10.77;;;2.67;;
52942;SDS011;38809;53.300;6.614;2023-02-11T17:55:17;10.43;;;2.88;;
52942;SDS011;38809;53.300;6.614;2023-02-11T17:57:43;12.97;;;3.20;;
52942;SDS011;38809;53.300;6.614;2023-02-11T18:00:09;9.77;;;2.67;;
52942;SDS011;38809;53.300;6.614;2023-02-11T18:02:35;11.73;;;2.85;;
52942;SDS011;38809;53.300;6.614;2023-02-11T18:05:00;9.53;;;2.47;;
52942;SDS011;38809;53.300;6.614;2023-02-11T18:07:26;14.13;;;2.80;;
52942;SDS011;38809;53.300;6.614;2023-02-11T18:09:52;9.93;;;3.10;;
52942;SDS011;38809;53.300;6.614;2023-02-11T18:12:18;9.73;;;3.15;;
52942;SDS011;38809;53.300;6.614;2023-02-11T18:14:51;10.27;;;3.15;;
52942;SDS011;38809;53.300;6.614;2023-02-11T18:17:21;10.70;;;3.83;;